createdAt,value
2023-05-11T21:14:15.191Z,14.30
2023-05-11T21:15:15.011Z,14.20
2023-05-11T21:16:15.009Z,14.23
2023-05-11T21:17:15.188Z,14.23
2023-05-11T21:18:14.984Z,14.21
2023-05-11T21:19:14.967Z,14.20
2023-05-11T21:20:14.958Z,14.20
2023-05-11T21:21:14.953Z,14.19
2023-05-11T21:22:14.952Z,14.17
2023-05-11T21:23:14.926Z,14.12
2023-05-11T21:24:14.920Z,14.17
2023-05-11T21:25:14.932Z,14.13
2023-05-11T21:26:14.900Z,14.12
2023-05-11T21:27:14.896Z,14.17
2023-05-11T21:28:14.864Z,14.16
2023-05-11T21:29:14.861Z,14.16
2023-05-11T21:30:14.902Z,14.11
2023-05-11T21:31:14.861Z,14.11
2023-05-11T21:32:14.856Z,14.12
2023-05-11T21:33:14.889Z,14.13
2023-05-11T21:34:14.840Z,14.12
2023-05-11T21:35:14.793Z,14.11
2023-05-11T21:36:14.779Z,14.12
2023-05-11T21:37:14.773Z,14.12
2023-05-11T21:38:14.769Z,14.09
2023-05-11T21:39:14.752Z,14.05
2023-05-11T21:40:14.743Z,14.09
2023-05-11T21:41:14.721Z,14.08
2023-05-11T21:42:14.715Z,14.06
2023-05-11T21:43:14.698Z,14.09
2023-05-11T21:44:14.704Z,14.12
2023-05-11T21:45:14.703Z,14.11
2023-05-11T21:46:14.771Z,14.11
2023-05-11T21:47:14.662Z,14.09
2023-05-11T21:48:14.648Z,14.12
2023-05-11T21:49:14.636Z,14.09
2023-05-11T21:50:14.637Z,14.11
2023-05-11T21:51:14.610Z,14.12
2023-05-11T21:52:14.596Z,14.12
2023-05-11T21:53:14.589Z,14.11
2023-05-11T21:54:14.584Z,14.08
2023-05-11T21:55:14.566Z,14.09
2023-05-11T21:56:14.564Z,14.05
2023-05-11T21:57:14.555Z,14.06
2023-05-11T21:58:14.657Z,14.06
2023-05-11T21:59:14.523Z,14.08
2023-05-11T22:00:14.514Z,14.06
2023-05-11T22:01:14.501Z,14.08
2023-05-11T22:02:14.555Z,14.06
2023-05-11T22:03:14.556Z,14.05
2023-05-11T22:04:14.862Z,14.04
2023-05-11T22:05:14.456Z,14.05
2023-05-11T22:06:14.444Z,14.04
2023-05-11T22:07:14.444Z,14.04
2023-05-11T22:08:15.949Z,14.02
2023-05-11T22:09:14.409Z,14.04
2023-05-11T22:10:14.478Z,14.04
2023-05-11T22:11:14.646Z,14.05
2023-05-11T22:12:14.380Z,14.04
2023-05-11T22:13:14.367Z,14.05
2023-05-11T22:14:14.367Z,14.04
2023-05-11T22:15:14.348Z,14.04
2023-05-11T22:16:14.387Z,14.04
2023-05-11T22:17:14.321Z,14.02
2023-05-11T22:18:14.331Z,14.02
2023-05-11T22:19:14.298Z,14.01
2023-05-11T22:20:14.291Z,14.01
2023-05-11T22:21:14.282Z,13.98
2023-05-11T22:22:14.268Z,13.98
2023-05-11T22:23:15.718Z,13.96
2023-05-11T22:24:14.254Z,13.96
2023-05-11T22:25:14.231Z,13.98
2023-05-11T22:26:14.223Z,13.96
2023-05-11T22:27:14.216Z,13.96
2023-05-11T22:28:14.202Z,13.96
2023-05-11T22:29:14.184Z,13.94
2023-05-11T22:30:14.176Z,13.93
2023-05-11T22:31:14.213Z,13.93
2023-05-11T22:32:14.155Z,13.93
2023-05-11T22:33:14.146Z,13.93
2023-05-11T22:34:14.175Z,13.94
2023-05-11T22:35:14.230Z,13.91
2023-05-11T22:36:14.118Z,13.91
2023-05-11T22:37:14.097Z,13.93
2023-05-11T22:38:14.082Z,13.91
2023-05-11T22:39:14.082Z,13.91
2023-05-11T22:40:14.078Z,13.90
2023-05-11T22:41:14.050Z,13.90
2023-05-11T22:42:14.035Z,13.91
2023-05-11T22:43:14.028Z,13.88
2023-05-11T22:44:14.020Z,13.88
2023-05-11T22:45:14.000Z,13.91
2023-05-11T22:46:14.096Z,13.90
2023-05-11T22:47:13.981Z,13.90
2023-05-11T22:48:13.970Z,13.91
2023-05-11T22:49:13.961Z,13.91
2023-05-11T22:50:14.058Z,13.88
2023-05-11T22:51:13.933Z,13.90
2023-05-11T22:52:13.925Z,13.88
2023-05-11T22:53:13.911Z,13.90
2023-05-11T22:54:13.901Z,13.90
2023-05-11T22:55:13.884Z,13.90
2023-05-11T22:56:13.900Z,13.88
2023-05-11T22:57:13.889Z,13.88
2023-05-11T22:58:13.862Z,13.87
2023-05-11T22:59:13.864Z,13.88
2023-05-11T23:00:13.833Z,13.88
2023-05-11T23:01:13.871Z,13.88
2023-05-11T23:02:13.846Z,13.87
2023-05-11T23:03:13.956Z,13.87
2023-05-11T23:04:13.795Z,13.87
2023-05-11T23:05:13.792Z,13.87
2023-05-11T23:06:13.797Z,13.86
2023-05-11T23:07:13.754Z,13.87
2023-05-11T23:08:13.757Z,13.86
2023-05-11T23:09:13.731Z,13.87
2023-05-11T23:10:13.725Z,13.90
2023-05-11T23:11:13.712Z,13.91
2023-05-11T23:12:13.703Z,13.91
2023-05-11T23:13:13.690Z,13.91
2023-05-11T23:14:13.682Z,13.90
2023-05-11T23:15:13.674Z,13.90
2023-05-11T23:16:13.658Z,13.88
2023-05-11T23:17:13.705Z,13.88
2023-05-11T23:18:13.747Z,13.86
2023-05-11T23:19:13.686Z,13.87
2023-05-11T23:20:13.618Z,13.86
2023-05-11T23:21:13.615Z,13.83
2023-05-11T23:22:13.632Z,13.83
2023-05-11T23:23:13.585Z,13.84
2023-05-11T23:24:13.568Z,13.81
2023-05-11T23:25:13.570Z,13.81
2023-05-11T23:26:13.551Z,13.81
2023-05-11T23:27:13.552Z,13.84
2023-05-11T23:28:13.524Z,13.84
2023-05-11T23:29:13.557Z,13.83
2023-05-11T23:30:13.528Z,13.79
2023-05-11T23:31:13.573Z,13.73
2023-05-11T23:32:13.484Z,13.66
2023-05-11T23:33:13.486Z,13.65
2023-05-11T23:34:13.461Z,13.63
2023-05-11T23:35:13.449Z,13.62
2023-05-11T23:36:13.459Z,13.61
2023-05-11T23:37:13.428Z,13.55
2023-05-11T23:38:13.440Z,13.53
2023-05-11T23:39:13.418Z,13.48
2023-05-11T23:40:13.391Z,13.44
2023-05-11T23:41:13.391Z,13.39
2023-05-11T23:42:13.371Z,13.36
2023-05-11T23:43:13.378Z,13.35
2023-05-11T23:44:13.353Z,13.31
2023-05-11T23:45:13.436Z,13.31
2023-05-11T23:46:13.323Z,13.25
2023-05-11T23:47:13.383Z,13.25
2023-05-11T23:48:13.315Z,13.22
2023-05-11T23:49:13.294Z,13.22
2023-05-11T23:50:13.295Z,13.17
2023-05-11T23:51:13.269Z,13.13
2023-05-11T23:52:13.258Z,13.07
2023-05-11T23:53:13.289Z,13.03
2023-05-11T23:54:13.294Z,12.96
2023-05-11T23:55:13.246Z,12.98
2023-05-11T23:56:13.222Z,12.98
2023-05-11T23:57:13.198Z,12.99
2023-05-11T23:58:13.186Z,12.98
2023-05-11T23:59:13.176Z,12.96
